sensor_id;sensor_type;location;lat;lon;timestamp;pressure;altitude;pressure_sealevel;temperature;humidity
44075;BME280;60448;44.956;7.660;2022-09-23T00:00:00;99250;;;23.1;42.3
44075;BME280;60448;44.956;7.660;2022-09-23T00:05:00;99250;;;23.0;41.8
44075;BME280;60448;44.956;7.660;2022-09-23T00:10:00;99250;;;23.0;41.8
44075;BME280;60448;44.956;7.660;2022-09-23T00:15:00;99250;;;23.0;41.8
44075;BME280;60448;44.956;7.660;2022-09-23T00:20:00;99260;;;22.9;42.3
44075;BME280;60448;44.956;7.660;2022-09-23T00:25:00;99260;;;22.9;42.4
44075;BME280;60448;44.956;7.660;2022-09-23T00:30:00;99260;;;22.9;42.4
44075;BME280;60448;44.956;7.660;2022-09-23T00:35:00;99260;;;23.0;42.5
44075;BME280;60448;44.956;7.660;2022-09-23T00:40:00;99260;;;22.9;42.6
44075;BME280;60448;44.956;7.660;2022-09-23T00:45:00;99260;;;22.9;42.6
44075;BME280;60448;44.956;7.660;2022-09-23T00:55:01;99260;;;23.0;42.5
44075;BME280;60448;44.956;7.660;2022-09-23T01:00:00;99260;;;23.0;42.5
44075;BME280;60448;44.956;7.660;2022-09-23T01:05:00;99260;;;23.0;42.5
44075;BME280;60448;44.956;7.660;2022-09-23T01:10:00;99250;;;23.0;42.5
44075;BME280;60448;44.956;7.660;2022-09-23T01:15:07;99250;;;23.0;42.5
44075;BME280;60448;44.956;7.660;2022-09-23T01:25:06;99250;;;23.0;42.7
44075;BME280;60448;44.956;7.660;2022-09-23T01:45:09;99240;;;23.0;42.8
44075;BME280;60448;44.956;7.660;2022-09-23T01:50:05;99240;;;23.0;42.8
44075;BME280;60448;44.956;7.660;2022-09-23T01:55:02;99230;;;23.0;42.8
44075;BME280;60448;44.956;7.660;2022-09-23T02:00:04;99230;;;23.0;42.8
44075;BME280;60448;44.956;7.660;2022-09-23T02:05:01;99230;;;23.0;42.8
44075;BME280;60448;44.956;7.660;2022-09-23T02:15:03;99230;;;23.0;42.9
44075;BME280;60448;44.956;7.660;2022-09-23T02:20:00;99230;;;23.0;42.9
44075;BME280;60448;44.956;7.660;2022-09-23T02:25:00;99230;;;23.0;42.9
44075;BME280;60448;44.956;7.660;2022-09-23T02:40:10;99230;;;22.9;42.7
44075;BME280;60448;44.956;7.660;2022-09-23T02:45:00;99220;;;22.9;42.7
44075;BME280;60448;44.956;7.660;2022-09-23T02:50:00;99220;;;22.9;42.7
44075;BME280;60448;44.956;7.660;2022-09-23T02:55:00;99220;;;22.9;42.7
44075;BME280;60448;44.956;7.660;2022-09-23T03:00:00;99220;;;22.9;42.7
44075;BME280;60448;44.956;7.660;2022-09-23T03:15:11;99210;;;22.9;42.9
44075;BME280;60448;44.956;7.660;2022-09-23T03:20:02;99210;;;22.9;42.9
44075;BME280;60448;44.956;7.660;2022-09-23T03:25:03;99210;;;22.9;42.9
44075;BME280;60448;44.956;7.660;2022-09-23T03:30:00;99200;;;22.8;43.0
44075;BME280;60448;44.956;7.660;2022-09-23T03:35:00;99200;;;22.8;43.0
44075;BME280;60448;44.956;7.660;2022-09-23T03:45:00;99200;;;22.8;43.0
44075;BME280;60448;44.956;7.660;2022-09-23T03:50:00;99200;;;22.8;43.0
44075;BME280;60448;44.956;7.660;2022-09-23T03:55:00;99200;;;22.8;43.0
44075;BME280;60448;44.956;7.660;2022-09-23T04:00:00;99190;;;22.7;42.7
44075;BME280;60448;44.956;7.660;2022-09-23T04:05:00;99190;;;22.7;42.7
44075;BME280;60448;44.956;7.660;2022-09-23T04:10:00;99190;;;22.7;42.7
44075;BME280;60448;44.956;7.660;2022-09-23T04:15:00;99190;;;22.7;42.7
44075;BME280;60448;44.956;7.660;2022-09-23T04:20:00;99190;;;22.6;42.9
44075;BME280;60448;44.956;7.660;2022-09-23T04:25:00;99190;;;22.6;42.9
44075;BME280;60448;44.956;7.660;2022-09-23T04:30:00;99190;;;22.6;42.9
44075;BME280;60448;44.956;7.660;2022-09-23T04:35:00;99180;;;22.6;43.0
44075;BME280;60448;44.956;7.660;2022-09-23T04:40:00;99180;;;22.6;43.0
44075;BME280;60448;44.956;7.660;2022-09-23T04:45:00;99180;;;22.6;43.0
44075;BME280;60448;44.956;7.660;2022-09-23T04:50:00;99180;;;22.6;43.4
44075;BME280;60448;44.956;7.660;2022-09-23T04:55:00;99180;;;22.6;43.4
44075;BME280;60448;44.956;7.660;2022-09-23T05:00:00;99180;;;22.6;43.4
44075;BME280;60448;44.956;7.660;2022-09-23T05:05:00;99180;;;22.7;43.5
44075;BME280;60448;44.956;7.660;2022-09-23T05:10:00;99180;;;22.7;43.5
44075;BME280;60448;44.956;7.660;2022-09-23T05:15:00;99180;;;22.7;43.5
44075;BME280;60448;44.956;7.660;2022-09-23T05:20:00;99170;;;22.6;43.7
44075;BME280;60448;44.956;7.660;2022-09-23T05:25:00;99170;;;22.6;43.7
44075;BME280;60448;44.956;7.660;2022-09-23T05:30:00;99170;;;22.6;43.7
44075;BME280;60448;44.956;7.660;2022-09-23T05:35:00;99170;;;22.6;43.7
44075;BME280;60448;44.956;7.660;2022-09-23T05:40:00;99180;;;22.6;43.7
44075;BME280;60448;44.956;7.660;2022-09-23T05:45:00;99180;;;22.6;43.7
44075;BME280;60448;44.956;7.660;2022-09-23T05:50:00;99180;;;22.6;43.7
44075;BME280;60448;44.956;7.660;2022-09-23T05:55:00;99180;;;22.8;44.5
44075;BME280;60448;44.956;7.660;2022-09-23T06:00:00;99180;;;22.8;44.5
44075;BME280;60448;44.956;7.660;2022-09-23T06:05:00;99180;;;22.8;44.5
44075;BME280;60448;44.956;7.660;2022-09-23T06:10:00;99190;;;22.9;44.7
44075;BME280;60448;44.956;7.660;2022-09-23T06:15:00;99190;;;22.9;44.7
44075;BME280;60448;44.956;7.660;2022-09-23T06:20:00;99190;;;22.9;44.7
44075;BME280;60448;44.956;7.660;2022-09-23T06:25:00;99190;;;23.0;44.8
44075;BME280;60448;44.956;7.660;2022-09-23T06:30:00;99190;;;23.0;44.8
44075;BME280;60448;44.956;7.660;2022-09-23T06:35:00;99190;;;23.0;44.8
44075;BME280;60448;44.956;7.660;2022-09-23T06:40:00;99200;;;23.0;45.0
44075;BME280;60448;44.956;7.660;2022-09-23T06:45:00;99200;;;23.0;45.0
44075;BME280;60448;44.956;7.660;2022-09-23T06:50:00;99200;;;23.0;45.0
44075;BME280;60448;44.956;7.660;2022-09-23T06:55:00;99200;;;23.0;45.2
44075;BME280;60448;44.956;7.660;2022-09-23T07:00:00;99200;;;22.9;45.2
44075;BME280;60448;44.956;7.660;2022-09-23T07:05:00;99200;;;22.9;45.2
44075;BME280;60448;44.956;7.660;2022-09-23T07:10:00;99190;;;22.9;45.2
44075;BME280;60448;44.956;7.660;2022-09-23T07:15:00;99200;;;22.8;45.2
44075;BME280;60448;44.956;7.660;2022-09-23T07:20:00;99200;;;22.8;45.2
44075;BME280;60448;44.956;7.660;2022-09-23T07:25:00;99200;;;22.8;45.1
44075;BME280;60448;44.956;7.660;2022-09-23T07:30:00;99200;;;22.8;45.1
44075;BME280;60448;44.956;7.660;2022-09-23T07:35:00;99200;;;22.8;45.0
44075;BME280;60448;44.956;7.660;2022-09-23T07:40:00;99200;;;22.8;44.9
44075;BME280;60448;44.956;7.660;2022-09-23T07:45:00;99200;;;22.8;44.8
44075;BME280;60448;44.956;7.660;2022-09-23T07:50:00;99200;;;22.8;44.7
44075;BME280;60448;44.956;7.660;2022-09-23T07:55:00;99210;;;22.8;44.5
44075;BME280;60448;44.956;7.660;2022-09-23T08:00:00;99210;;;22.8;44.4
44075;BME280;60448;44.956;7.660;2022-09-23T08:05:00;99210;;;22.8;44.2
44075;BME280;60448;44.956;7.660;2022-09-23T08:10:00;99210;;;22.8;44.0
44075;BME280;60448;44.956;7.660;2022-09-23T08:15:00;99210;;;22.8;43.8
44075;BME280;60448;44.956;7.660;2022-09-23T08:20:00;99220;;;22.7;43.7
44075;BME280;60448;44.956;7.660;2022-09-23T08:25:00;99220;;;22.7;43.7
44075;BME280;60448;44.956;7.660;2022-09-23T08:30:00;99210;;;22.7;43.6
44075;BME280;60448;44.956;7.660;2022-09-23T08:35:00;99210;;;22.7;43.6
44075;BME280;60448;44.956;7.660;2022-09-23T08:40:00;99220;;;22.7;43.6
44075;BME280;60448;44.956;7.660;2022-09-23T08:45:01;99220;;;22.7;43.6
44075;BME280;60448;44.956;7.660;2022-09-23T08:50:04;99210;;;22.7;43.6
44075;BME280;60448;44.956;7.660;2022-09-23T08:55:00;99210;;;22.7;43.6
44075;BME280;60448;44.956;7.660;2022-09-23T09:00:00;99210;;;22.7;43.5
44075;BME280;60448;44.956;7.660;2022-09-23T09:05:02;99210;;;22.7;43.5
44075;BME280;60448;44.956;7.660;2022-09-23T09:10:05;99200;;;22.7;43.5
44075;BME280;60448;44.956;7.660;2022-09-23T09:15:02;99200;;;22.7;43.4
44075;BME280;60448;44.956;7.660;2022-09-23T09:25:03;99190;;;22.7;43.4
44075;BME280;60448;44.956;7.660;2022-09-23T09:30:00;99180;;;22.7;43.4
44075;BME280;60448;44.956;7.660;2022-09-23T09:35:04;99180;;;22.7;43.4
44075;BME280;60448;44.956;7.660;2022-09-23T09:40:00;99170;;;22.7;43.3
44075;BME280;60448;44.956;7.660;2022-09-23T09:45:00;99170;;;22.7;43.3
44075;BME280;60448;44.956;7.660;2022-09-23T09:55:30;99170;;;22.7;43.3
44075;BME280;60448;44.956;7.660;2022-09-23T10:00:15;99170;;;22.7;43.3
44075;BME280;60448;44.956;7.660;2022-09-23T10:05:02;99170;;;22.7;43.2
44075;BME280;60448;44.956;7.660;2022-09-23T10:15:00;99160;;;22.7;43.2
44075;BME280;60448;44.956;7.660;2022-09-23T10:20:02;99160;;;22.7;43.3
44075;BME280;60448;44.956;7.660;2022-09-23T10:25:01;99150;;;22.7;43.3
44075;BME280;60448;44.956;7.660;2022-09-23T10:30:01;99150;;;22.8;43.3
44075;BME280;60448;44.956;7.660;2022-09-23T10:35:01;99150;;;22.8;43.3
44075;BME280;60448;44.956;7.660;2022-09-23T10:40:00;99140;;;22.8;43.3
44075;BME280;60448;44.956;7.660;2022-09-23T10:45:06;99140;;;22.8;43.2
44075;BME280;60448;44.956;7.660;2022-09-23T10:50:10;99140;;;22.8;43.3
44075;BME280;60448;44.956;7.660;2022-09-23T11:00:03;99120;;;22.7;43.3
44075;BME280;60448;44.956;7.660;2022-09-23T11:35:08;99080;;;22.8;43.9
44075;BME280;60448;44.956;7.660;2022-09-23T11:45:03;99070;;;22.8;44.2
44075;BME280;60448;44.956;7.660;2022-09-23T11:50:02;99060;;;22.8;44.3
44075;BME280;60448;44.956;7.660;2022-09-23T12:00:05;99040;;;22.8;44.4
44075;BME280;60448;44.956;7.660;2022-09-23T12:05:02;99030;;;22.8;44.4
44075;BME280;60448;44.956;7.660;2022-09-23T12:10:01;99030;;;22.8;44.4
44075;BME280;60448;44.956;7.660;2022-09-23T12:20:04;99020;;;22.9;44.6
44075;BME280;60448;44.956;7.660;2022-09-23T12:30:01;99010;;;23.0;44.5
44075;BME280;60448;44.956;7.660;2022-09-23T12:35:00;99010;;;23.0;44.5
44075;BME280;60448;44.956;7.660;2022-09-23T12:40:04;99000;;;23.0;44.4
44075;BME280;60448;44.956;7.660;2022-09-23T12:50:00;98990;;;23.0;44.4
44075;BME280;60448;44.956;7.660;2022-09-23T13:05:08;98970;;;23.0;44.3
44075;BME280;60448;44.956;7.660;2022-09-23T13:15:01;98960;;;23.0;44.2
44075;BME280;60448;44.956;7.660;2022-09-23T13:20:04;98950;;;23.0;44.2
44075;BME280;60448;44.956;7.660;2022-09-23T13:25:00;98950;;;23.0;44.2
44075;BME280;60448;44.956;7.660;2022-09-23T13:35:01;98950;;;23.2;44.1
44075;BME280;60448;44.956;7.660;2022-09-23T13:40:08;98940;;;23.2;44.0
44075;BME280;60448;44.956;7.660;2022-09-23T13:45:00;98930;;;23.2;43.9
44075;BME280;60448;44.956;7.660;2022-09-23T13:50:02;98920;;;23.2;43.9
44075;BME280;60448;44.956;7.660;2022-09-23T13:55:00;98920;;;23.2;43.8
44075;BME280;60448;44.956;7.660;2022-09-23T14:00:00;98920;;;23.2;43.9
44075;BME280;60448;44.956;7.660;2022-09-23T14:05:08;98920;;;23.2;43.9
44075;BME280;60448;44.956;7.660;2022-09-23T14:10:00;98910;;;23.2;43.9
44075;BME280;60448;44.956;7.660;2022-09-23T14:15:00;98900;;;23.2;43.9
44075;BME280;60448;44.956;7.660;2022-09-23T14:20:00;98900;;;23.2;43.9
44075;BME280;60448;44.956;7.660;2022-09-23T14:25:00;98880;;;23.2;44.0
44075;BME280;60448;44.956;7.660;2022-09-23T14:30:00;98880;;;23.2;43.9
44075;BME280;60448;44.956;7.660;2022-09-23T14:40:00;98870;;;23.3;43.9
44075;BME280;60448;44.956;7.660;2022-09-23T14:45:00;98860;;;23.3;44.0
44075;BME280;60448;44.956;7.660;2022-09-23T14:50:00;98860;;;23.3;43.9
44075;BME280;60448;44.956;7.660;2022-09-23T14:55:00;98850;;;23.3;43.9
44075;BME280;60448;44.956;7.660;2022-09-23T15:00:06;98850;;;23.3;44.1
44075;BME280;60448;44.956;7.660;2022-09-23T15:05:10;98850;;;23.4;44.0
44075;BME280;60448;44.956;7.660;2022-09-23T15:10:00;98850;;;23.4;43.9
44075;BME280;60448;44.956;7.660;2022-09-23T15:15:00;98850;;;23.4;43.9
44075;BME280;60448;44.956;7.660;2022-09-23T15:20:02;98840;;;23.4;43.9
44075;BME280;60448;44.956;7.660;2022-09-23T15:30:01;98840;;;23.4;44.2
44075;BME280;60448;44.956;7.660;2022-09-23T15:35:00;98830;;;23.4;44.3
44075;BME280;60448;44.956;7.660;2022-09-23T15:40:00;98830;;;23.4;43.8
44075;BME280;60448;44.956;7.660;2022-09-23T15:45:00;98830;;;23.4;43.7
44075;BME280;60448;44.956;7.660;2022-09-23T15:50:00;98820;;;23.4;43.6
44075;BME280;60448;44.956;7.660;2022-09-23T15:55:00;98820;;;23.4;43.7
44075;BME280;60448;44.956;7.660;2022-09-23T16:00:00;98820;;;23.5;43.8
44075;BME280;60448;44.956;7.660;2022-09-23T16:05:00;98820;;;23.5;43.8
44075;BME280;60448;44.956;7.660;2022-09-23T16:10:00;98820;;;23.5;43.9
44075;BME280;60448;44.956;7.660;2022-09-23T16:15:00;98820;;;23.5;44.0
44075;BME280;60448;44.956;7.660;2022-09-23T16:20:00;98820;;;23.5;44.0
44075;BME280;60448;44.956;7.660;2022-09-23T16:25:01;98820;;;23.5;44.0
44075;BME280;60448;44.956;7.660;2022-09-23T16:30:00;98820;;;23.5;44.0
44075;BME280;60448;44.956;7.660;2022-09-23T16:35:00;98820;;;23.5;44.1
44075;BME280;60448;44.956;7.660;2022-09-23T16:40:00;98820;;;23.5;44.1
44075;BME280;60448;44.956;7.660;2022-09-23T16:45:00;98820;;;23.5;44.2
44075;BME280;60448;44.956;7.660;2022-09-23T16:50:00;98820;;;23.5;44.3
44075;BME280;60448;44.956;7.660;2022-09-23T16:55:00;98820;;;23.6;44.4
44075;BME280;60448;44.956;7.660;2022-09-23T17:00:00;98820;;;23.6;44.5
44075;BME280;60448;44.956;7.660;2022-09-23T17:05:00;98830;;;23.6;44.6
44075;BME280;60448;44.956;7.660;2022-09-23T17:10:00;98830;;;23.6;44.8
44075;BME280;60448;44.956;7.660;2022-09-23T17:15:02;98820;;;23.6;44.8
44075;BME280;60448;44.956;7.660;2022-09-23T17:20:00;98820;;;23.6;44.9
44075;BME280;60448;44.956;7.660;2022-09-23T17:25:00;98830;;;23.6;45.1
44075;BME280;60448;44.956;7.660;2022-09-23T17:30:00;98820;;;23.6;45.2
44075;BME280;60448;44.956;7.660;2022-09-23T17:35:00;98830;;;23.6;45.4
44075;BME280;60448;44.956;7.660;2022-09-23T17:40:00;98840;;;23.6;45.4
44075;BME280;60448;44.956;7.660;2022-09-23T17:45:00;98840;;;23.6;45.3
44075;BME280;60448;44.956;7.660;2022-09-23T17:55:00;98840;;;23.7;45.3
44075;BME280;60448;44.956;7.660;2022-09-23T18:00:00;98840;;;23.7;45.3
44075;BME280;60448;44.956;7.660;2022-09-23T18:05:00;98840;;;23.7;45.4
44075;BME280;60448;44.956;7.660;2022-09-23T18:10:00;98830;;;23.7;45.5
44075;BME280;60448;44.956;7.660;2022-09-23T18:15:00;98840;;;23.7;45.2
44075;BME280;60448;44.956;7.660;2022-09-23T18:20:00;98840;;;23.7;44.8
44075;BME280;60448;44.956;7.660;2022-09-23T18:25:00;98840;;;23.7;44.6
44075;BME280;60448;44.956;7.660;2022-09-23T18:30:00;98830;;;23.7;44.4
44075;BME280;60448;44.956;7.660;2022-09-23T18:35:00;98840;;;23.7;44.3
44075;BME280;60448;44.956;7.660;2022-09-23T18:40:00;98840;;;23.7;44.3
44075;BME280;60448;44.956;7.660;2022-09-23T18:45:00;98830;;;23.7;44.2
44075;BME280;60448;44.956;7.660;2022-09-23T18:50:00;98840;;;23.7;44.2
44075;BME280;60448;44.956;7.660;2022-09-23T18:55:00;98850;;;23.7;44.2
44075;BME280;60448;44.956;7.660;2022-09-23T19:00:00;98840;;;23.8;44.1
44075;BME280;60448;44.956;7.660;2022-09-23T19:05:00;98850;;;23.8;44.0
44075;BME280;60448;44.956;7.660;2022-09-23T19:10:00;98850;;;23.8;44.0
44075;BME280;60448;44.956;7.660;2022-09-23T19:15:00;98850;;;23.8;44.0
44075;BME280;60448;44.956;7.660;2022-09-23T19:20:00;98860;;;23.8;43.9
44075;BME280;60448;44.956;7.660;2022-09-23T19:25:00;98860;;;23.8;43.9
44075;BME280;60448;44.956;7.660;2022-09-23T19:30:00;98860;;;23.8;43.9
44075;BME280;60448;44.956;7.660;2022-09-23T19:35:00;98850;;;23.8;43.9
44075;BME280;60448;44.956;7.660;2022-09-23T19:40:00;98850;;;23.8;43.9
44075;BME280;60448;44.956;7.660;2022-09-23T19:45:00;98850;;;23.8;43.9
44075;BME280;60448;44.956;7.660;2022-09-23T19:50:00;98850;;;23.8;43.9
44075;BME280;60448;44.956;7.660;2022-09-23T19:55:00;98840;;;23.8;44.0
44075;BME280;60448;44.956;7.660;2022-09-23T20:00:00;98840;;;23.8;44.0
44075;BME280;60448;44.956;7.660;2022-09-23T20:05:00;98850;;;23.8;44.1
44075;BME280;60448;44.956;7.660;2022-09-23T20:10:00;98850;;;23.8;44.1
44075;BME280;60448;44.956;7.660;2022-09-23T20:15:00;98870;;;23.8;44.1
44075;BME280;60448;44.956;7.660;2022-09-23T20:20:00;98870;;;23.8;44.1
44075;BME280;60448;44.956;7.660;2022-09-23T20:25:00;98870;;;23.8;44.2
44075;BME280;60448;44.956;7.660;2022-09-23T20:30:00;98870;;;23.8;44.2
44075;BME280;60448;44.956;7.660;2022-09-23T20:35:00;98870;;;23.8;44.3
44075;BME280;60448;44.956;7.660;2022-09-23T20:40:00;98870;;;23.8;44.3
44075;BME280;60448;44.956;7.660;2022-09-23T20:45:00;98880;;;23.8;44.3
44075;BME280;60448;44.956;7.660;2022-09-23T20:50:00;98880;;;23.8;44.3
44075;BME280;60448;44.956;7.660;2022-09-23T20:55:00;98880;;;23.8;44.5
44075;BME280;60448;44.956;7.660;2022-09-23T21:00:00;98880;;;23.8;44.6
44075;BME280;60448;44.956;7.660;2022-09-23T21:05:00;98880;;;23.8;44.7
44075;BME280;60448;44.956;7.660;2022-09-23T21:10:00;98880;;;23.8;44.9
44075;BME280;60448;44.956;7.660;2022-09-23T21:15:00;98880;;;23.8;44.9
44075;BME280;60448;44.956;7.660;2022-09-23T21:20:00;98890;;;23.8;44.9
44075;BME280;60448;44.956;7.660;2022-09-23T21:25:00;98890;;;23.8;44.9
44075;BME280;60448;44.956;7.660;2022-09-23T21:30:00;98890;;;23.8;44.9
44075;BME280;60448;44.956;7.660;2022-09-23T21:35:01;98890;;;23.8;44.9
44075;BME280;60448;44.956;7.660;2022-09-23T21:40:00;98890;;;23.8;44.9
44075;BME280;60448;44.956;7.660;2022-09-23T21:45:00;98890;;;23.8;44.9
44075;BME280;60448;44.956;7.660;2022-09-23T21:50:00;98890;;;23.8;44.9
44075;BME280;60448;44.956;7.660;2022-09-23T21:55:00;98890;;;23.8;44.9
44075;BME280;60448;44.956;7.660;2022-09-23T22:00:00;98890;;;23.8;44.9
44075;BME280;60448;44.956;7.660;2022-09-23T22:05:00;98890;;;23.7;45.0
44075;BME280;60448;44.956;7.660;2022-09-23T22:10:00;98890;;;23.7;45.0
44075;BME280;60448;44.956;7.660;2022-09-23T22:15:00;98890;;;23.7;45.0
44075;BME280;60448;44.956;7.660;2022-09-23T22:20:00;98890;;;23.7;45.1
44075;BME280;60448;44.956;7.660;2022-09-23T22:25:00;98890;;;23.7;45.0
44075;BME280;60448;44.956;7.660;2022-09-23T22:30:00;98890;;;23.7;45.2
44075;BME280;60448;44.956;7.660;2022-09-23T22:35:00;98890;;;23.7;45.2
44075;BME280;60448;44.956;7.660;2022-09-23T22:40:02;98890;;;23.7;45.2
44075;BME280;60448;44.956;7.660;2022-09-23T22:45:00;98890;;;23.7;45.1
44075;BME280;60448;44.956;7.660;2022-09-23T22:50:00;98890;;;23.7;45.1
44075;BME280;60448;44.956;7.660;2022-09-23T22:55:00;98880;;;23.7;45.1
44075;BME280;60448;44.956;7.660;2022-09-23T23:00:00;98880;;;23.7;45.1
44075;BME280;60448;44.956;7.660;2022-09-23T23:05:00;98870;;;23.7;45.2
44075;BME280;60448;44.956;7.660;2022-09-23T23:10:00;98870;;;23.7;45.3
44075;BME280;60448;44.956;7.660;2022-09-23T23:15:00;98870;;;23.7;45.2
44075;BME280;60448;44.956;7.660;2022-09-23T23:20:00;98880;;;23.7;44.9
44075;BME280;60448;44.956;7.660;2022-09-23T23:25:00;98870;;;23.7;44.8
44075;BME280;60448;44.956;7.660;2022-09-23T23:30:00;98860;;;23.7;44.8
44075;BME280;60448;44.956;7.660;2022-09-23T23:35:00;98840;;;23.7;44.9
44075;BME280;60448;44.956;7.660;2022-09-23T23:40:00;98850;;;23.6;44.9
44075;BME280;60448;44.956;7.660;2022-09-23T23:45:00;98840;;;23.6;44.6
44075;BME280;60448;44.956;7.660;2022-09-23T23:50:00;98840;;;23.6;44.5
44075;BME280;60448;44.956;7.660;2022-09-23T23:55:00;98840;;;23.6;44.4
